Toul Rosières Air Base

Airport
ICAO code: 
LFSL
IATA Code: 
BVE
Summary
ICAO Region: 
EUR
Territory: 
Location: 
, Lorraine
Serving: 
Brive
Elevation: 
936 ft
Coordinates: 
Aerial View: 
45° 9' 2.999" N, 1° 28' 9.001" E
Metar
Observation
LFSL 302100Z AUTO 12006KT 9999 OVC027 01/M01 Q1024 NOSIG
Station
Toul / Rosieres
Date/Time
2021-11-30 21:00:00
Wind direction
120°
Wind speed
06 kts
Lowest cloud amount
overcast
Temperature
1°C
Dew point
-1°C
Humidity
86%
QNH
1024 hPa
Weather condition
n/a
Airport map: 
Aerial View: 

SKYbrary Partners:

Safety knowledge contributed by: